Glendale, Arkansas
Current Conditions -  °F | °C
As of 8:53 PM on Thursday 18 Dec 2014 (Local Time) from KPBF Reporting Station
Overcast Overcast  
Wind Chill: 38°   Ceiling: 700
Heat Index: 43°   Visibility: 8mi
Dew Point: 40°   Wind: 9mph
Humidity: 89%   Direction: 20°NNE
Pressure: 30.23"   Gusts: NA
Location:  33.924°N, 91.8685°W
Report Text: KPBF 190253Z AUTO 02008KT 8SM OVC007 06/04 A3023 RMK AO2 SLP236 T00610044 51012
Loading
Personal Weather Stations






























Interactive Weather Map New forecast layout! Learn more

10-Day Weather Forecast

Advertisements
Track Severe Weather on mobile